Terminal Aerodrome Forecast
Issued by NWS Grand Forks, ND

Home | Current Version | Previous Version | Text Only | Print | Product List | Glossary Off
Versions: 1 2 3 4 5 6 7 8 9 10 11 12 13 14 15 16 17 18 19 20 21 22 23

377
FTUS43 KFGF 051913 AAA
TAFGFK
TAF AMD
KGFK 051913Z 0519/0618 06009KT P6SM OVC006
      TEMPO 0522/0523 3/4SM -SN
     FM052300 03010KT 1 1/2SM -SN OVC003
     FM060000 03011KT 1 1/2SM -SN OVC003
     FM060600 34013KT 1SM -SN OVC003
     FM061300 31019G28KT 1SM -SN BLSN OVC010=

USA.gov is the U.S. government's official web portal to all federal, state and local government web resources and services.